sensor_id;sensor_type;location;lat;lon;timestamp;P1;durP1;ratioP1;P2;durP2;ratioP2
61150;SDS011;47029;50.994;2.876;2022-09-02T00:00:49;12.45;;;4.40;;
61150;SDS011;47029;50.994;2.876;2022-09-02T00:03:32;9.30;;;4.28;;
61150;SDS011;47029;50.994;2.876;2022-09-02T00:06:07;9.25;;;4.32;;
61150;SDS011;47029;50.994;2.876;2022-09-02T00:08:36;9.93;;;4.53;;
61150;SDS011;47029;50.994;2.876;2022-09-02T00:11:16;9.43;;;4.40;;
61150;SDS011;47029;50.994;2.876;2022-09-02T00:13:46;9.13;;;4.50;;
61150;SDS011;47029;50.994;2.876;2022-09-02T00:16:14;9.90;;;4.12;;
61150;SDS011;47029;50.994;2.876;2022-09-02T00:18:50;10.52;;;4.32;;
61150;SDS011;47029;50.994;2.876;2022-09-02T00:21:20;9.35;;;4.45;;
61150;SDS011;47029;50.994;2.876;2022-09-02T00:24:04;11.98;;;4.30;;
61150;SDS011;47029;50.994;2.876;2022-09-02T00:26:33;11.50;;;4.40;;
61150;SDS011;47029;50.994;2.876;2022-09-02T00:28:58;10.35;;;4.60;;
61150;SDS011;47029;50.994;2.876;2022-09-02T00:31:25;11.45;;;4.57;;
61150;SDS011;47029;50.994;2.876;2022-09-02T00:34:11;8.93;;;4.40;;
61150;SDS011;47029;50.994;2.876;2022-09-02T00:36:55;11.35;;;4.95;;
61150;SDS011;47029;50.994;2.876;2022-09-02T00:39:23;10.35;;;4.60;;
61150;SDS011;47029;50.994;2.876;2022-09-02T00:41:59;11.10;;;4.50;;
61150;SDS011;47029;50.994;2.876;2022-09-02T00:44:36;10.38;;;4.70;;
61150;SDS011;47029;50.994;2.876;2022-09-02T00:47:12;11.20;;;4.57;;
61150;SDS011;47029;50.994;2.876;2022-09-02T00:49:39;10.20;;;4.32;;
61150;SDS011;47029;50.994;2.876;2022-09-02T00:54:46;13.52;;;4.80;;
61150;SDS011;47029;50.994;2.876;2022-09-02T00:57:17;10.50;;;4.72;;
61150;SDS011;47029;50.994;2.876;2022-09-02T01:00:35;10.32;;;4.80;;
61150;SDS011;47029;50.994;2.876;2022-09-02T01:02:47;9.23;;;4.82;;
61150;SDS011;47029;50.994;2.876;2022-09-02T01:05:17;12.90;;;5.50;;
61150;SDS011;47029;50.994;2.876;2022-09-02T01:07:44;11.35;;;4.93;;
61150;SDS011;47029;50.994;2.876;2022-09-02T01:10:20;12.05;;;4.82;;
61150;SDS011;47029;50.994;2.876;2022-09-02T01:12:56;10.82;;;5.65;;
61150;SDS011;47029;50.994;2.876;2022-09-02T01:15:26;9.95;;;5.50;;
61150;SDS011;47029;50.994;2.876;2022-09-02T01:17:57;11.98;;;4.93;;
61150;SDS011;47029;50.994;2.876;2022-09-02T01:23:13;13.93;;;5.87;;
61150;SDS011;47029;50.994;2.876;2022-09-02T01:25:41;11.63;;;5.53;;
61150;SDS011;47029;50.994;2.876;2022-09-02T01:28:09;10.98;;;5.72;;
61150;SDS011;47029;50.994;2.876;2022-09-02T01:30:38;11.27;;;5.82;;
61150;SDS011;47029;50.994;2.876;2022-09-02T01:33:09;11.12;;;5.97;;
61150;SDS011;47029;50.994;2.876;2022-09-02T01:36:03;11.80;;;6.30;;
61150;SDS011;47029;50.994;2.876;2022-09-02T01:38:32;11.73;;;6.10;;
61150;SDS011;47029;50.994;2.876;2022-09-02T01:40:58;13.15;;;6.43;;
61150;SDS011;47029;50.994;2.876;2022-09-02T01:43:30;13.20;;;6.72;;
61150;SDS011;47029;50.994;2.876;2022-09-02T01:45:59;14.13;;;6.70;;
61150;SDS011;47029;50.994;2.876;2022-09-02T01:48:33;12.77;;;6.35;;
61150;SDS011;47029;50.994;2.876;2022-09-02T01:51:00;12.32;;;6.82;;
61150;SDS011;47029;50.994;2.876;2022-09-02T01:53:29;13.32;;;6.93;;
61150;SDS011;47029;50.994;2.876;2022-09-02T01:56:01;12.35;;;6.93;;
61150;SDS011;47029;50.994;2.876;2022-09-02T01:58:30;14.60;;;7.10;;
61150;SDS011;47029;50.994;2.876;2022-09-02T02:00:58;12.55;;;6.72;;
61150;SDS011;47029;50.994;2.876;2022-09-02T02:03:29;14.23;;;7.75;;
61150;SDS011;47029;50.994;2.876;2022-09-02T02:06:04;13.02;;;7.07;;
61150;SDS011;47029;50.994;2.876;2022-09-02T02:08:45;13.30;;;7.18;;
61150;SDS011;47029;50.994;2.876;2022-09-02T02:11:20;11.77;;;7.30;;
61150;SDS011;47029;50.994;2.876;2022-09-02T02:13:52;14.60;;;7.70;;
61150;SDS011;47029;50.994;2.876;2022-09-02T02:16:20;14.13;;;8.02;;
61150;SDS011;47029;50.994;2.876;2022-09-02T02:18:52;13.35;;;7.80;;
61150;SDS011;47029;50.994;2.876;2022-09-02T02:21:28;13.73;;;7.55;;
61150;SDS011;47029;50.994;2.876;2022-09-02T02:23:56;13.10;;;7.70;;
61150;SDS011;47029;50.994;2.876;2022-09-02T02:26:24;12.85;;;8.05;;
61150;SDS011;47029;50.994;2.876;2022-09-02T02:28:50;12.70;;;7.82;;
61150;SDS011;47029;50.994;2.876;2022-09-02T02:31:18;14.87;;;7.82;;
61150;SDS011;47029;50.994;2.876;2022-09-02T02:33:44;14.15;;;7.97;;
61150;SDS011;47029;50.994;2.876;2022-09-02T02:36:12;12.98;;;7.68;;
61150;SDS011;47029;50.994;2.876;2022-09-02T02:38:41;13.30;;;7.90;;
61150;SDS011;47029;50.994;2.876;2022-09-02T02:41:10;15.65;;;8.18;;
61150;SDS011;47029;50.994;2.876;2022-09-02T02:43:39;12.45;;;7.65;;
61150;SDS011;47029;50.994;2.876;2022-09-02T02:46:06;14.27;;;7.85;;
61150;SDS011;47029;50.994;2.876;2022-09-02T02:48:36;12.45;;;8.23;;
61150;SDS011;47029;50.994;2.876;2022-09-02T02:51:02;13.10;;;8.00;;
61150;SDS011;47029;50.994;2.876;2022-09-02T02:53:32;14.05;;;8.00;;
61150;SDS011;47029;50.994;2.876;2022-09-02T02:56:01;15.32;;;8.80;;
61150;SDS011;47029;50.994;2.876;2022-09-02T02:58:30;14.95;;;7.95;;
61150;SDS011;47029;50.994;2.876;2022-09-02T03:00:59;13.88;;;8.10;;
61150;SDS011;47029;50.994;2.876;2022-09-02T03:03:27;14.95;;;8.05;;
61150;SDS011;47029;50.994;2.876;2022-09-02T03:05:59;19.75;;;8.65;;
61150;SDS011;47029;50.994;2.876;2022-09-02T03:08:33;18.02;;;8.70;;
61150;SDS011;47029;50.994;2.876;2022-09-02T03:10:59;14.70;;;8.43;;
61150;SDS011;47029;50.994;2.876;2022-09-02T03:13:26;16.08;;;8.65;;
61150;SDS011;47029;50.994;2.876;2022-09-02T03:15:58;16.05;;;8.38;;
61150;SDS011;47029;50.994;2.876;2022-09-02T03:18:32;14.87;;;8.82;;
61150;SDS011;47029;50.994;2.876;2022-09-02T03:24:03;15.77;;;9.00;;
61150;SDS011;47029;50.994;2.876;2022-09-02T03:26:29;15.00;;;8.35;;
61150;SDS011;47029;50.994;2.876;2022-09-02T03:28:55;16.00;;;8.55;;
61150;SDS011;47029;50.994;2.876;2022-09-02T03:31:22;13.38;;;8.45;;
61150;SDS011;47029;50.994;2.876;2022-09-02T03:34:05;15.65;;;8.68;;
61150;SDS011;47029;50.994;2.876;2022-09-02T03:36:35;15.48;;;8.73;;
61150;SDS011;47029;50.994;2.876;2022-09-02T03:39:03;17.20;;;9.20;;
61150;SDS011;47029;50.994;2.876;2022-09-02T03:41:34;14.07;;;8.63;;
61150;SDS011;47029;50.994;2.876;2022-09-02T03:44:09;17.33;;;9.60;;
61150;SDS011;47029;50.994;2.876;2022-09-02T03:46:35;15.52;;;9.38;;
61150;SDS011;47029;50.994;2.876;2022-09-02T03:49:06;14.23;;;9.35;;
61150;SDS011;47029;50.994;2.876;2022-09-02T03:51:32;17.23;;;8.82;;
61150;SDS011;47029;50.994;2.876;2022-09-02T03:54:06;13.77;;;9.27;;
61150;SDS011;47029;50.994;2.876;2022-09-02T03:56:34;14.07;;;8.85;;
61150;SDS011;47029;50.994;2.876;2022-09-02T03:59:03;14.77;;;9.07;;
61150;SDS011;47029;50.994;2.876;2022-09-02T04:01:37;13.85;;;9.20;;
61150;SDS011;47029;50.994;2.876;2022-09-02T04:04:11;16.35;;;9.50;;
61150;SDS011;47029;50.994;2.876;2022-09-02T04:06:43;15.75;;;9.38;;
61150;SDS011;47029;50.994;2.876;2022-09-02T04:09:13;15.85;;;9.40;;
61150;SDS011;47029;50.994;2.876;2022-09-02T04:11:42;19.00;;;9.60;;
61150;SDS011;47029;50.994;2.876;2022-09-02T04:14:13;15.40;;;9.25;;
61150;SDS011;47029;50.994;2.876;2022-09-02T04:16:45;16.25;;;8.93;;
61150;SDS011;47029;50.994;2.876;2022-09-02T04:19:11;16.83;;;9.73;;
61150;SDS011;47029;50.994;2.876;2022-09-02T04:21:38;15.70;;;9.80;;
61150;SDS011;47029;50.994;2.876;2022-09-02T04:24:07;15.20;;;9.38;;
61150;SDS011;47029;50.994;2.876;2022-09-02T04:26:35;16.65;;;9.68;;
61150;SDS011;47029;50.994;2.876;2022-09-02T04:29:03;13.73;;;9.20;;
61150;SDS011;47029;50.994;2.876;2022-09-02T04:31:36;16.10;;;9.48;;
61150;SDS011;47029;50.994;2.876;2022-09-02T04:34:07;17.15;;;9.43;;
61150;SDS011;47029;50.994;2.876;2022-09-02T04:36:40;18.05;;;9.63;;
61150;SDS011;47029;50.994;2.876;2022-09-02T04:39:06;18.00;;;10.60;;
61150;SDS011;47029;50.994;2.876;2022-09-02T04:41:40;16.15;;;9.90;;
61150;SDS011;47029;50.994;2.876;2022-09-02T04:44:06;17.55;;;10.10;;
61150;SDS011;47029;50.994;2.876;2022-09-02T04:46:34;18.08;;;9.70;;
61150;SDS011;47029;50.994;2.876;2022-09-02T04:49:01;16.50;;;9.93;;
61150;SDS011;47029;50.994;2.876;2022-09-02T04:51:31;22.30;;;10.57;;
61150;SDS011;47029;50.994;2.876;2022-09-02T04:54:16;17.00;;;10.13;;
61150;SDS011;47029;50.994;2.876;2022-09-02T04:57:33;17.55;;;9.98;;
61150;SDS011;47029;50.994;2.876;2022-09-02T05:00:09;15.18;;;10.07;;
61150;SDS011;47029;50.994;2.876;2022-09-02T05:02:43;18.20;;;9.93;;
61150;SDS011;47029;50.994;2.876;2022-09-02T05:05:16;17.60;;;9.98;;
61150;SDS011;47029;50.994;2.876;2022-09-02T05:07:54;20.45;;;10.20;;
61150;SDS011;47029;50.994;2.876;2022-09-02T05:10:23;18.95;;;10.57;;
61150;SDS011;47029;50.994;2.876;2022-09-02T05:12:53;15.57;;;10.00;;
61150;SDS011;47029;50.994;2.876;2022-09-02T05:15:19;18.55;;;10.02;;
61150;SDS011;47029;50.994;2.876;2022-09-02T05:17:48;14.87;;;10.00;;
61150;SDS011;47029;50.994;2.876;2022-09-02T05:20:17;17.23;;;10.30;;
61150;SDS011;47029;50.994;2.876;2022-09-02T05:22:46;17.55;;;10.77;;
61150;SDS011;47029;50.994;2.876;2022-09-02T05:25:14;16.17;;;10.23;;
61150;SDS011;47029;50.994;2.876;2022-09-02T05:27:39;17.00;;;10.38;;
61150;SDS011;47029;50.994;2.876;2022-09-02T05:30:11;18.00;;;10.60;;
61150;SDS011;47029;50.994;2.876;2022-09-02T05:32:43;17.37;;;10.55;;
61150;SDS011;47029;50.994;2.876;2022-09-02T05:35:17;17.65;;;10.63;;
61150;SDS011;47029;50.994;2.876;2022-09-02T05:37:43;16.40;;;10.68;;
61150;SDS011;47029;50.994;2.876;2022-09-02T05:40:16;18.00;;;10.40;;
61150;SDS011;47029;50.994;2.876;2022-09-02T05:42:46;19.87;;;10.52;;
61150;SDS011;47029;50.994;2.876;2022-09-02T05:45:24;16.35;;;10.88;;
61150;SDS011;47029;50.994;2.876;2022-09-02T05:47:57;16.80;;;11.35;;
61150;SDS011;47029;50.994;2.876;2022-09-02T05:50:23;18.70;;;11.50;;
61150;SDS011;47029;50.994;2.876;2022-09-02T05:52:49;15.95;;;10.73;;
61150;SDS011;47029;50.994;2.876;2022-09-02T05:55:17;17.50;;;11.55;;
61150;SDS011;47029;50.994;2.876;2022-09-02T05:57:46;18.67;;;11.25;;
61150;SDS011;47029;50.994;2.876;2022-09-02T06:00:14;22.52;;;11.90;;
61150;SDS011;47029;50.994;2.876;2022-09-02T06:02:42;18.58;;;11.68;;
61150;SDS011;47029;50.994;2.876;2022-09-02T06:05:08;18.42;;;11.60;;
61150;SDS011;47029;50.994;2.876;2022-09-02T06:07:36;18.40;;;11.07;;
61150;SDS011;47029;50.994;2.876;2022-09-02T06:10:02;18.02;;;11.50;;
61150;SDS011;47029;50.994;2.876;2022-09-02T06:12:29;20.48;;;11.50;;
61150;SDS011;47029;50.994;2.876;2022-09-02T06:14:55;16.08;;;11.23;;
61150;SDS011;47029;50.994;2.876;2022-09-02T06:17:20;18.70;;;11.05;;
61150;SDS011;47029;50.994;2.876;2022-09-02T06:19:46;18.23;;;11.35;;
61150;SDS011;47029;50.994;2.876;2022-09-02T06:22:12;15.10;;;10.90;;
61150;SDS011;47029;50.994;2.876;2022-09-02T06:24:38;17.25;;;11.32;;
61150;SDS011;47029;50.994;2.876;2022-09-02T06:27:03;15.73;;;10.57;;
61150;SDS011;47029;50.994;2.876;2022-09-02T06:29:31;16.62;;;10.57;;
61150;SDS011;47029;50.994;2.876;2022-09-02T06:31:57;19.87;;;10.63;;
61150;SDS011;47029;50.994;2.876;2022-09-02T06:34:22;15.93;;;10.07;;
61150;SDS011;47029;50.994;2.876;2022-09-02T06:36:49;18.52;;;10.80;;
61150;SDS011;47029;50.994;2.876;2022-09-02T06:39:19;16.50;;;10.38;;
61150;SDS011;47029;50.994;2.876;2022-09-02T06:41:52;17.17;;;10.57;;
61150;SDS011;47029;50.994;2.876;2022-09-02T06:44:20;19.37;;;10.20;;
61150;SDS011;47029;50.994;2.876;2022-09-02T06:46:47;17.52;;;10.52;;
61150;SDS011;47029;50.994;2.876;2022-09-02T06:49:21;17.35;;;10.45;;
61150;SDS011;47029;50.994;2.876;2022-09-02T06:51:48;18.12;;;10.13;;
61150;SDS011;47029;50.994;2.876;2022-09-02T06:54:20;16.83;;;10.65;;
61150;SDS011;47029;50.994;2.876;2022-09-02T06:56:47;17.30;;;10.63;;
61150;SDS011;47029;50.994;2.876;2022-09-02T06:59:17;18.83;;;10.60;;
61150;SDS011;47029;50.994;2.876;2022-09-02T07:01:44;19.17;;;10.93;;
61150;SDS011;47029;50.994;2.876;2022-09-02T07:04:10;17.62;;;10.27;;
61150;SDS011;47029;50.994;2.876;2022-09-02T07:06:54;15.50;;;10.70;;
61150;SDS011;47029;50.994;2.876;2022-09-02T07:09:23;16.90;;;10.15;;
61150;SDS011;47029;50.994;2.876;2022-09-02T07:11:55;17.45;;;10.90;;
61150;SDS011;47029;50.994;2.876;2022-09-02T07:14:22;16.08;;;10.90;;
61150;SDS011;47029;50.994;2.876;2022-09-02T07:16:49;17.67;;;10.13;;
61150;SDS011;47029;50.994;2.876;2022-09-02T07:19:16;17.60;;;11.02;;
61150;SDS011;47029;50.994;2.876;2022-09-02T07:21:43;20.60;;;11.60;;
61150;SDS011;47029;50.994;2.876;2022-09-02T07:24:10;21.62;;;10.95;;
61150;SDS011;47029;50.994;2.876;2022-09-02T07:26:37;18.73;;;10.23;;
61150;SDS011;47029;50.994;2.876;2022-09-02T07:29:04;19.10;;;11.25;;
61150;SDS011;47029;50.994;2.876;2022-09-02T07:31:33;17.37;;;10.65;;
61150;SDS011;47029;50.994;2.876;2022-09-02T07:34:01;20.02;;;10.93;;
61150;SDS011;47029;50.994;2.876;2022-09-02T07:36:28;18.12;;;10.40;;
61150;SDS011;47029;50.994;2.876;2022-09-02T07:38:54;18.00;;;10.07;;
61150;SDS011;47029;50.994;2.876;2022-09-02T07:41:20;18.10;;;10.43;;
61150;SDS011;47029;50.994;2.876;2022-09-02T07:43:47;20.45;;;10.68;;
61150;SDS011;47029;50.994;2.876;2022-09-02T07:46:12;17.67;;;10.40;;
61150;SDS011;47029;50.994;2.876;2022-09-02T07:48:38;17.40;;;10.73;;
61150;SDS011;47029;50.994;2.876;2022-09-02T07:51:06;18.60;;;10.65;;
61150;SDS011;47029;50.994;2.876;2022-09-02T07:53:32;15.45;;;9.75;;
61150;SDS011;47029;50.994;2.876;2022-09-02T07:55:59;17.45;;;10.02;;
61150;SDS011;47029;50.994;2.876;2022-09-02T07:58:25;17.48;;;9.82;;
61150;SDS011;47029;50.994;2.876;2022-09-02T08:00:52;17.62;;;10.07;;
61150;SDS011;47029;50.994;2.876;2022-09-02T08:03:21;17.62;;;10.60;;
61150;SDS011;47029;50.994;2.876;2022-09-02T08:05:49;16.85;;;10.35;;
61150;SDS011;47029;50.994;2.876;2022-09-02T08:08:16;15.05;;;9.52;;
61150;SDS011;47029;50.994;2.876;2022-09-02T08:10:44;15.75;;;9.80;;
61150;SDS011;47029;50.994;2.876;2022-09-02T08:13:12;17.37;;;9.88;;
61150;SDS011;47029;50.994;2.876;2022-09-02T08:15:40;18.58;;;9.55;;
61150;SDS011;47029;50.994;2.876;2022-09-02T08:18:10;17.95;;;9.25;;
61150;SDS011;47029;50.994;2.876;2022-09-02T08:20:38;16.17;;;9.80;;
61150;SDS011;47029;50.994;2.876;2022-09-02T08:23:07;16.27;;;9.40;;
61150;SDS011;47029;50.994;2.876;2022-09-02T08:25:34;16.85;;;9.20;;
61150;SDS011;47029;50.994;2.876;2022-09-02T08:28:03;16.73;;;9.25;;
61150;SDS011;47029;50.994;2.876;2022-09-02T08:30:31;17.00;;;9.27;;
61150;SDS011;47029;50.994;2.876;2022-09-02T08:32:57;14.75;;;9.10;;
61150;SDS011;47029;50.994;2.876;2022-09-02T08:35:24;15.05;;;9.20;;
61150;SDS011;47029;50.994;2.876;2022-09-02T08:37:50;16.10;;;9.30;;
61150;SDS011;47029;50.994;2.876;2022-09-02T08:40:17;15.85;;;8.93;;
61150;SDS011;47029;50.994;2.876;2022-09-02T08:42:46;15.02;;;8.60;;
61150;SDS011;47029;50.994;2.876;2022-09-02T08:45:28;14.32;;;8.38;;
61150;SDS011;47029;50.994;2.876;2022-09-02T08:48:11;14.32;;;9.00;;
61150;SDS011;47029;50.994;2.876;2022-09-02T08:50:48;15.77;;;9.57;;
61150;SDS011;47029;50.994;2.876;2022-09-02T08:53:29;13.52;;;8.70;;
61150;SDS011;47029;50.994;2.876;2022-09-02T08:56:04;15.98;;;9.52;;
61150;SDS011;47029;50.994;2.876;2022-09-02T08:58:38;13.77;;;8.80;;
61150;SDS011;47029;50.994;2.876;2022-09-02T09:01:09;17.02;;;9.15;;
61150;SDS011;47029;50.994;2.876;2022-09-02T09:07:01;16.08;;;8.27;;
61150;SDS011;47029;50.994;2.876;2022-09-02T09:09:39;16.05;;;8.88;;
61150;SDS011;47029;50.994;2.876;2022-09-02T09:12:36;16.35;;;9.15;;
61150;SDS011;47029;50.994;2.876;2022-09-02T09:15:10;17.20;;;8.30;;
61150;SDS011;47029;50.994;2.876;2022-09-02T09:17:44;15.57;;;8.45;;
61150;SDS011;47029;50.994;2.876;2022-09-02T09:20:19;16.10;;;8.40;;
61150;SDS011;47029;50.994;2.876;2022-09-02T09:22:48;14.10;;;7.80;;
61150;SDS011;47029;50.994;2.876;2022-09-02T09:25:20;14.18;;;7.50;;
61150;SDS011;47029;50.994;2.876;2022-09-02T09:27:49;14.57;;;8.30;;
61150;SDS011;47029;50.994;2.876;2022-09-02T09:30:15;16.17;;;8.20;;
61150;SDS011;47029;50.994;2.876;2022-09-02T09:32:45;18.23;;;8.18;;
61150;SDS011;47029;50.994;2.876;2022-09-02T09:35:15;12.45;;;7.57;;
61150;SDS011;47029;50.994;2.876;2022-09-02T09:37:44;13.07;;;7.37;;
61150;SDS011;47029;50.994;2.876;2022-09-02T09:42:53;13.00;;;7.43;;
61150;SDS011;47029;50.994;2.876;2022-09-02T09:45:31;13.62;;;7.65;;
61150;SDS011;47029;50.994;2.876;2022-09-02T09:53:22;14.90;;;6.95;;
61150;SDS011;47029;50.994;2.876;2022-09-02T10:01:20;13.10;;;7.20;;
61150;SDS011;47029;50.994;2.876;2022-09-02T10:04:01;16.40;;;7.55;;
61150;SDS011;47029;50.994;2.876;2022-09-02T10:06:50;12.77;;;6.07;;
61150;SDS011;47029;50.994;2.876;2022-09-02T10:14:20;12.50;;;7.00;;
61150;SDS011;47029;50.994;2.876;2022-09-02T10:27:06;12.10;;;4.93;;
61150;SDS011;47029;50.994;2.876;2022-09-02T10:29:38;12.35;;;5.80;;
61150;SDS011;47029;50.994;2.876;2022-09-02T10:41:25;13.05;;;6.45;;
61150;SDS011;47029;50.994;2.876;2022-09-02T10:46:20;11.35;;;5.35;;
61150;SDS011;47029;50.994;2.876;2022-09-02T10:57:24;10.85;;;5.30;;
61150;SDS011;47029;50.994;2.876;2022-09-02T11:00:03;11.63;;;6.00;;
61150;SDS011;47029;50.994;2.876;2022-09-02T11:02:37;10.75;;;5.57;;
61150;SDS011;47029;50.994;2.876;2022-09-02T11:05:42;11.95;;;5.55;;
61150;SDS011;47029;50.994;2.876;2022-09-02T11:08:33;12.15;;;5.00;;
61150;SDS011;47029;50.994;2.876;2022-09-02T11:13:39;13.57;;;5.70;;
61150;SDS011;47029;50.994;2.876;2022-09-02T11:16:34;10.55;;;5.15;;
61150;SDS011;47029;50.994;2.876;2022-09-02T11:19:11;10.73;;;5.00;;
61150;SDS011;47029;50.994;2.876;2022-09-02T11:21:51;10.60;;;5.05;;
61150;SDS011;47029;50.994;2.876;2022-09-02T11:24:33;10.15;;;4.87;;
61150;SDS011;47029;50.994;2.876;2022-09-02T11:32:28;10.15;;;5.00;;
61150;SDS011;47029;50.994;2.876;2022-09-02T11:35:23;9.98;;;5.05;;
61150;SDS011;47029;50.994;2.876;2022-09-02T11:41:03;10.00;;;5.00;;
61150;SDS011;47029;50.994;2.876;2022-09-02T11:43:59;10.77;;;4.72;;
61150;SDS011;47029;50.994;2.876;2022-09-02T11:47:08;10.30;;;4.90;;
61150;SDS011;47029;50.994;2.876;2022-09-02T11:55:42;10.18;;;4.60;;
61150;SDS011;47029;50.994;2.876;2022-09-02T12:01:04;9.77;;;5.03;;
61150;SDS011;47029;50.994;2.876;2022-09-02T12:03:46;11.70;;;4.78;;
61150;SDS011;47029;50.994;2.876;2022-09-02T12:06:28;11.60;;;5.28;;
61150;SDS011;47029;50.994;2.876;2022-09-02T12:14:04;9.80;;;4.97;;
61150;SDS011;47029;50.994;2.876;2022-09-02T12:16:35;9.88;;;5.00;;
61150;SDS011;47029;50.994;2.876;2022-09-02T12:24:54;9.93;;;5.00;;
61150;SDS011;47029;50.994;2.876;2022-09-02T12:27:39;9.77;;;4.95;;
61150;SDS011;47029;50.994;2.876;2022-09-02T12:30:07;11.98;;;4.95;;
61150;SDS011;47029;50.994;2.876;2022-09-02T12:35:11;9.60;;;4.87;;
61150;SDS011;47029;50.994;2.876;2022-09-02T12:38:35;11.52;;;4.80;;
61150;SDS011;47029;50.994;2.876;2022-09-02T12:43:21;9.80;;;4.90;;
61150;SDS011;47029;50.994;2.876;2022-09-02T12:45:55;10.07;;;4.80;;
61150;SDS011;47029;50.994;2.876;2022-09-02T12:48:35;11.82;;;4.90;;
61150;SDS011;47029;50.994;2.876;2022-09-02T12:51:07;9.02;;;4.80;;
61150;SDS011;47029;50.994;2.876;2022-09-02T12:53:39;10.32;;;4.72;;
61150;SDS011;47029;50.994;2.876;2022-09-02T12:58:55;9.65;;;4.80;;
61150;SDS011;47029;50.994;2.876;2022-09-02T13:12:48;9.30;;;4.78;;
61150;SDS011;47029;50.994;2.876;2022-09-02T13:27:18;9.93;;;4.50;;
61150;SDS011;47029;50.994;2.876;2022-09-02T13:32:27;9.93;;;4.68;;
61150;SDS011;47029;50.994;2.876;2022-09-02T13:34:55;10.65;;;4.60;;
61150;SDS011;47029;50.994;2.876;2022-09-02T13:37:25;9.63;;;4.82;;
61150;SDS011;47029;50.994;2.876;2022-09-02T13:40:16;10.98;;;4.72;;
61150;SDS011;47029;50.994;2.876;2022-09-02T13:42:48;12.10;;;5.10;;
61150;SDS011;47029;50.994;2.876;2022-09-02T13:45:22;12.02;;;5.00;;
61150;SDS011;47029;50.994;2.876;2022-09-02T13:47:52;11.52;;;5.10;;
61150;SDS011;47029;50.994;2.876;2022-09-02T13:50:25;11.60;;;5.20;;
61150;SDS011;47029;50.994;2.876;2022-09-02T13:53:07;24.30;;;6.37;;
61150;SDS011;47029;50.994;2.876;2022-09-02T13:55:58;10.18;;;5.10;;
61150;SDS011;47029;50.994;2.876;2022-09-02T14:00:55;9.63;;;4.68;;
61150;SDS011;47029;50.994;2.876;2022-09-02T14:03:25;9.77;;;4.72;;
61150;SDS011;47029;50.994;2.876;2022-09-02T14:05:54;12.13;;;4.97;;
61150;SDS011;47029;50.994;2.876;2022-09-02T14:08:26;10.48;;;4.95;;
61150;SDS011;47029;50.994;2.876;2022-09-02T14:10:55;9.82;;;4.78;;
61150;SDS011;47029;50.994;2.876;2022-09-02T14:13:22;9.20;;;4.80;;
61150;SDS011;47029;50.994;2.876;2022-09-02T14:15:48;10.60;;;5.28;;
61150;SDS011;47029;50.994;2.876;2022-09-02T14:18:15;10.13;;;4.82;;
61150;SDS011;47029;50.994;2.876;2022-09-02T14:20:53;10.45;;;4.87;;
61150;SDS011;47029;50.994;2.876;2022-09-02T14:23:39;9.60;;;4.75;;
61150;SDS011;47029;50.994;2.876;2022-09-02T14:26:18;11.10;;;5.10;;
61150;SDS011;47029;50.994;2.876;2022-09-02T14:28:52;10.00;;;4.97;;
61150;SDS011;47029;50.994;2.876;2022-09-02T14:31:24;12.10;;;5.12;;
61150;SDS011;47029;50.994;2.876;2022-09-02T14:33:54;14.65;;;5.30;;
61150;SDS011;47029;50.994;2.876;2022-09-02T14:38:51;11.38;;;5.15;;
61150;SDS011;47029;50.994;2.876;2022-09-02T14:51:45;13.93;;;5.62;;
61150;SDS011;47029;50.994;2.876;2022-09-02T14:54:34;13.70;;;5.28;;
61150;SDS011;47029;50.994;2.876;2022-09-02T14:59:28;15.73;;;6.00;;
61150;SDS011;47029;50.994;2.876;2022-09-02T15:01:54;16.45;;;6.50;;
61150;SDS011;47029;50.994;2.876;2022-09-02T15:04:22;13.73;;;6.80;;
61150;SDS011;47029;50.994;2.876;2022-09-02T15:06:48;14.02;;;7.05;;
61150;SDS011;47029;50.994;2.876;2022-09-02T15:09:15;15.38;;;7.70;;
61150;SDS011;47029;50.994;2.876;2022-09-02T15:11:42;14.10;;;8.10;;
61150;SDS011;47029;50.994;2.876;2022-09-02T15:14:11;14.87;;;7.62;;
61150;SDS011;47029;50.994;2.876;2022-09-02T15:16:38;16.52;;;7.80;;
61150;SDS011;47029;50.994;2.876;2022-09-02T15:19:04;15.95;;;7.93;;
61150;SDS011;47029;50.994;2.876;2022-09-02T15:21:30;20.50;;;8.88;;
61150;SDS011;47029;50.994;2.876;2022-09-02T15:23:56;14.68;;;8.55;;
61150;SDS011;47029;50.994;2.876;2022-09-02T15:26:24;14.25;;;8.23;;
61150;SDS011;47029;50.994;2.876;2022-09-02T15:28:50;19.12;;;9.07;;
61150;SDS011;47029;50.994;2.876;2022-09-02T15:31:18;13.60;;;8.82;;
61150;SDS011;47029;50.994;2.876;2022-09-02T15:33:50;16.33;;;9.57;;
61150;SDS011;47029;50.994;2.876;2022-09-02T15:36:19;15.90;;;9.90;;
61150;SDS011;47029;50.994;2.876;2022-09-02T15:38:49;18.40;;;10.15;;
61150;SDS011;47029;50.994;2.876;2022-09-02T15:41:19;16.52;;;10.00;;
61150;SDS011;47029;50.994;2.876;2022-09-02T15:43:50;16.67;;;9.55;;
61150;SDS011;47029;50.994;2.876;2022-09-02T15:46:20;18.30;;;9.50;;
61150;SDS011;47029;50.994;2.876;2022-09-02T15:48:46;13.80;;;8.95;;
61150;SDS011;47029;50.994;2.876;2022-09-02T15:51:22;15.93;;;9.95;;
61150;SDS011;47029;50.994;2.876;2022-09-02T15:53:55;16.37;;;9.05;;
61150;SDS011;47029;50.994;2.876;2022-09-02T15:56:28;14.18;;;8.65;;
61150;SDS011;47029;50.994;2.876;2022-09-02T15:59:01;18.17;;;9.98;;
61150;SDS011;47029;50.994;2.876;2022-09-02T16:01:35;16.00;;;9.18;;
61150;SDS011;47029;50.994;2.876;2022-09-02T16:04:04;15.68;;;9.30;;
61150;SDS011;47029;50.994;2.876;2022-09-02T16:06:33;15.07;;;8.57;;
61150;SDS011;47029;50.994;2.876;2022-09-02T16:09:02;14.52;;;8.57;;
61150;SDS011;47029;50.994;2.876;2022-09-02T16:11:28;15.02;;;8.63;;
61150;SDS011;47029;50.994;2.876;2022-09-02T16:13:56;13.82;;;8.90;;
61150;SDS011;47029;50.994;2.876;2022-09-02T16:16:24;13.73;;;8.52;;
61150;SDS011;47029;50.994;2.876;2022-09-02T16:18:51;14.35;;;8.82;;
61150;SDS011;47029;50.994;2.876;2022-09-02T16:21:22;14.43;;;8.80;;
61150;SDS011;47029;50.994;2.876;2022-09-02T16:23:48;14.35;;;8.40;;
61150;SDS011;47029;50.994;2.876;2022-09-02T16:28:49;14.73;;;9.05;;
61150;SDS011;47029;50.994;2.876;2022-09-02T16:31:17;16.15;;;7.95;;
61150;SDS011;47029;50.994;2.876;2022-09-02T16:36:30;13.60;;;8.38;;
61150;SDS011;47029;50.994;2.876;2022-09-02T16:39:00;12.50;;;7.20;;
61150;SDS011;47029;50.994;2.876;2022-09-02T16:41:34;12.35;;;7.37;;
61150;SDS011;47029;50.994;2.876;2022-09-02T16:44:09;12.80;;;7.40;;
61150;SDS011;47029;50.994;2.876;2022-09-02T16:46:43;14.48;;;7.78;;
61150;SDS011;47029;50.994;2.876;2022-09-02T16:49:10;14.25;;;8.18;;
61150;SDS011;47029;50.994;2.876;2022-09-02T16:51:38;13.65;;;7.90;;
61150;SDS011;47029;50.994;2.876;2022-09-02T16:54:05;14.73;;;7.87;;
61150;SDS011;47029;50.994;2.876;2022-09-02T16:56:33;13.30;;;7.97;;
61150;SDS011;47029;50.994;2.876;2022-09-02T16:59:01;14.18;;;8.27;;
61150;SDS011;47029;50.994;2.876;2022-09-02T17:01:28;13.77;;;7.37;;
61150;SDS011;47029;50.994;2.876;2022-09-02T17:03:54;13.32;;;6.85;;
61150;SDS011;47029;50.994;2.876;2022-09-02T17:06:20;13.15;;;6.47;;
61150;SDS011;47029;50.994;2.876;2022-09-02T17:08:45;11.27;;;6.57;;
61150;SDS011;47029;50.994;2.876;2022-09-02T17:16:31;13.23;;;7.10;;
61150;SDS011;47029;50.994;2.876;2022-09-02T17:19:03;12.27;;;6.22;;
61150;SDS011;47029;50.994;2.876;2022-09-02T17:21:42;12.02;;;6.70;;
61150;SDS011;47029;50.994;2.876;2022-09-02T17:24:10;11.50;;;6.40;;
61150;SDS011;47029;50.994;2.876;2022-09-02T17:26:38;13.38;;;6.78;;
61150;SDS011;47029;50.994;2.876;2022-09-02T17:29:14;12.02;;;6.78;;
61150;SDS011;47029;50.994;2.876;2022-09-02T17:31:44;13.20;;;6.60;;